createdAt,value
2018-09-11T00:00:08.822Z,15.00
2018-09-11T00:02:37.082Z,15.00
2018-09-11T00:05:05.391Z,14.90
2018-09-11T00:07:33.647Z,14.80
2018-09-11T00:10:01.934Z,14.80
2018-09-11T00:12:30.214Z,14.70
2018-09-11T00:14:58.598Z,14.60
2018-09-11T00:17:26.871Z,14.50
2018-09-11T00:19:55.161Z,14.40
2018-09-11T00:22:23.430Z,14.40
2018-09-11T00:24:51.718Z,14.30
2018-09-11T00:27:19.991Z,14.40
2018-09-11T00:29:48.270Z,14.40
2018-09-11T00:32:16.547Z,14.40
2018-09-11T00:34:44.825Z,14.40
2018-09-11T00:37:13.167Z,14.40
2018-09-11T00:39:41.462Z,14.40
2018-09-11T00:42:09.746Z,14.40
2018-09-11T00:44:38.021Z,14.40
2018-09-11T00:47:06.445Z,14.30
2018-09-11T00:49:34.730Z,14.30
2018-09-11T00:52:03.023Z,14.40
2018-09-11T00:54:31.302Z,14.50
2018-09-11T00:56:59.742Z,14.50
2018-09-11T00:59:28.033Z,14.40
2018-09-11T01:01:56.328Z,14.40
2018-09-11T01:04:24.613Z,14.30
2018-09-11T01:06:52.893Z,14.20
2018-09-11T01:09:21.160Z,14.20
2018-09-11T01:11:49.415Z,14.40
2018-09-11T01:14:17.701Z,14.40
2018-09-11T01:16:46.031Z,14.50
2018-09-11T01:19:14.438Z,14.60
2018-09-11T01:21:42.706Z,14.50
2018-09-11T01:24:10.985Z,14.50
2018-09-11T01:26:39.261Z,14.40
2018-09-11T01:29:07.568Z,14.40
2018-09-11T01:31:35.863Z,14.30
2018-09-11T01:34:04.192Z,14.20
2018-09-11T01:36:32.652Z,14.10
2018-09-11T01:39:01.260Z,14.10
2018-09-11T01:41:29.782Z,14.00
2018-09-11T01:43:58.366Z,13.90
2018-09-11T01:46:26.854Z,13.90
2018-09-11T01:48:55.337Z,13.80
2018-09-11T01:51:23.722Z,13.70
2018-09-11T01:53:52.131Z,13.70
2018-09-11T01:56:20.637Z,13.60
2018-09-11T01:58:49.471Z,13.50
2018-09-11T02:01:17.961Z,13.50
2018-09-11T02:03:46.383Z,13.50
2018-09-11T02:06:14.923Z,13.50
2018-09-11T02:08:43.431Z,13.50
2018-09-11T02:11:11.954Z,13.40
2018-09-11T02:13:40.628Z,13.50
2018-09-11T02:16:09.292Z,13.40
2018-09-11T02:18:37.770Z,13.40
2018-09-11T02:21:06.315Z,13.40
2018-09-11T02:23:34.809Z,13.30
2018-09-11T02:26:03.288Z,13.20
2018-09-11T02:28:31.796Z,13.20
2018-09-11T02:31:00.304Z,13.10
2018-09-11T02:33:28.695Z,13.10
2018-09-11T02:35:57.241Z,13.10
2018-09-11T02:38:25.745Z,13.10
2018-09-11T02:40:54.222Z,13.20
2018-09-11T02:43:22.674Z,13.20
2018-09-11T02:45:51.262Z,13.20
2018-09-11T02:48:19.796Z,13.20
2018-09-11T02:50:48.427Z,13.20
2018-09-11T02:53:16.906Z,13.20
2018-09-11T02:55:45.407Z,13.20
2018-09-11T02:58:13.915Z,13.10
2018-09-11T03:00:42.314Z,13.00
2018-09-11T03:03:10.833Z,12.90
2018-09-11T03:05:39.312Z,12.90
2018-09-11T03:08:07.679Z,12.90
2018-09-11T03:10:36.231Z,12.80
2018-09-11T03:13:04.751Z,12.80
2018-09-11T03:15:33.417Z,12.70
2018-09-11T03:18:01.799Z,12.70
2018-09-11T03:20:30.256Z,12.70
2018-09-11T03:22:58.744Z,12.70
2018-09-11T03:25:27.407Z,12.70
2018-09-11T03:27:55.883Z,12.70
2018-09-11T03:30:24.340Z,12.70
2018-09-11T03:32:52.797Z,12.70
2018-09-11T03:35:21.330Z,12.70
2018-09-11T03:37:49.878Z,12.70
2018-09-11T03:40:18.340Z,12.70
2018-09-11T03:42:46.815Z,12.70
2018-09-11T03:45:15.293Z,12.80
2018-09-11T03:47:44.146Z,12.70
2018-09-11T03:50:12.683Z,12.70
2018-09-11T03:52:41.200Z,12.60
2018-09-11T03:55:09.763Z,12.70
2018-09-11T03:57:38.263Z,12.80
2018-09-11T04:00:06.733Z,12.80
2018-09-11T04:02:35.215Z,12.80
2018-09-11T04:05:03.691Z,12.90
2018-09-11T04:07:32.132Z,12.90
2018-09-11T04:10:00.685Z,12.90
2018-09-11T04:12:29.185Z,12.90
2018-09-11T04:14:57.755Z,12.80
2018-09-11T04:17:31.310Z,12.70
2018-09-11T04:19:59.890Z,12.70
2018-09-11T04:22:28.769Z,12.60
2018-09-11T04:24:57.238Z,12.60
2018-09-11T04:27:25.768Z,12.60
2018-09-11T04:29:54.350Z,12.80
2018-09-11T04:32:22.734Z,12.70
2018-09-11T04:34:51.144Z,12.60
2018-09-11T04:37:19.781Z,12.50
2018-09-11T04:39:48.256Z,12.50
2018-09-11T04:42:16.772Z,12.50
2018-09-11T04:44:45.361Z,12.40
2018-09-11T04:47:14.015Z,12.40
2018-09-11T04:49:42.468Z,12.40
2018-09-11T04:52:10.904Z,12.40
2018-09-11T04:54:39.432Z,12.40
2018-09-11T04:57:07.922Z,12.40
2018-09-11T04:59:36.626Z,12.50
2018-09-11T05:02:05.183Z,12.50
2018-09-11T05:04:33.704Z,12.50
2018-09-11T05:07:02.404Z,12.50
2018-09-11T05:09:31.062Z,12.50
2018-09-11T05:11:59.503Z,12.60
2018-09-11T05:14:28.003Z,12.70
2018-09-11T05:16:56.546Z,12.80
2018-09-11T05:19:25.243Z,13.00
2018-09-11T05:21:53.867Z,13.10
2018-09-11T05:24:22.408Z,13.30
2018-09-11T05:26:50.952Z,13.40
2018-09-11T05:29:19.480Z,13.60
2018-09-11T05:31:48.047Z,13.80
2018-09-11T05:34:16.587Z,14.00
2018-09-11T05:36:45.215Z,14.30
2018-09-11T05:39:13.744Z,14.60
2018-09-11T05:41:43.160Z,14.80
2018-09-11T05:44:11.577Z,15.00
2018-09-11T05:46:40.041Z,15.50
2018-09-11T05:49:10.444Z,15.80
2018-09-11T05:51:40.122Z,16.00
2018-09-11T05:54:08.991Z,16.10
2018-09-11T05:56:37.511Z,16.20
2018-09-11T05:59:07.739Z,16.00
2018-09-11T06:01:36.462Z,15.90
2018-09-11T06:04:05.857Z,16.00
2018-09-11T06:06:34.612Z,16.10
2018-09-11T06:09:03.484Z,16.60
2018-09-11T06:11:32.140Z,17.40
2018-09-11T06:14:00.655Z,18.00
2018-09-11T06:16:29.106Z,18.70
2018-09-11T06:18:57.562Z,19.30
2018-09-11T06:21:26.043Z,19.90
2018-09-11T06:23:54.484Z,20.70
2018-09-11T06:26:22.932Z,21.40
2018-09-11T06:28:51.394Z,22.00
2018-09-11T06:31:20.058Z,22.40
2018-09-11T06:33:48.575Z,22.70
2018-09-11T06:36:17.056Z,22.80
2018-09-11T06:38:45.530Z,22.90
2018-09-11T06:41:14.080Z,23.40
2018-09-11T06:43:42.658Z,23.40
2018-09-11T06:46:11.794Z,24.20
2018-09-11T06:48:40.391Z,24.60
2018-09-11T06:51:08.918Z,25.10
2018-09-11T06:53:37.385Z,25.40
2018-09-11T06:56:05.979Z,24.80
2018-09-11T06:58:34.456Z,25.10
2018-09-11T07:01:02.968Z,25.90
2018-09-11T07:03:31.574Z,27.10
2018-09-11T07:06:03.243Z,27.60
2018-09-11T07:08:34.914Z,28.00
2018-09-11T07:11:03.376Z,27.80
2018-09-11T07:13:31.870Z,27.90
2018-09-11T07:16:00.341Z,28.00
2018-09-11T07:18:28.809Z,28.50
2018-09-11T07:20:57.420Z,27.90
2018-09-11T07:23:25.960Z,27.70
2018-09-11T07:25:54.549Z,27.10
2018-09-11T07:28:22.964Z,26.40
2018-09-11T07:30:51.468Z,27.30
2018-09-11T07:33:19.907Z,28.00
2018-09-11T07:35:48.443Z,27.40
2018-09-11T07:38:17.334Z,28.40
2018-09-11T07:40:45.853Z,27.70
2018-09-11T07:43:14.290Z,27.50
2018-09-11T07:45:42.724Z,27.60
2018-09-11T07:48:11.212Z,28.60
2018-09-11T07:50:39.670Z,29.80
2018-09-11T07:53:08.176Z,27.60
2018-09-11T07:55:36.567Z,26.50
2018-09-11T07:58:05.019Z,27.90
2018-09-11T08:00:33.479Z,28.80
2018-09-11T08:03:02.101Z,27.70
2018-09-11T08:05:30.679Z,27.10
2018-09-11T08:07:59.160Z,25.50
2018-09-11T08:10:27.628Z,25.80
2018-09-11T08:12:56.155Z,26.60
2018-09-11T08:15:24.669Z,27.70
2018-09-11T08:17:53.133Z,28.80
2018-09-11T08:20:21.499Z,29.30
2018-09-11T08:22:49.939Z,29.60
2018-09-11T08:25:18.413Z,29.70
2018-09-11T08:27:46.815Z,28.10
2018-09-11T08:30:15.292Z,27.40
2018-09-11T08:32:43.809Z,27.30
2018-09-11T08:35:18.666Z,28.60
2018-09-11T08:37:47.123Z,28.40
2018-09-11T08:40:15.610Z,28.40
2018-09-11T08:42:44.064Z,29.10
2018-09-11T08:45:12.707Z,29.20
2018-09-11T08:47:41.318Z,27.20
2018-09-11T08:50:09.776Z,26.30
2018-09-11T08:52:38.221Z,26.10
2018-09-11T08:55:06.840Z,26.00
2018-09-11T08:57:35.261Z,26.90
2018-09-11T09:00:03.815Z,27.40
2018-09-11T09:02:32.311Z,26.80
2018-09-11T09:05:00.854Z,26.40
2018-09-11T09:07:29.243Z,25.80
2018-09-11T09:09:57.817Z,26.00
2018-09-11T09:12:26.227Z,26.00
2018-09-11T09:14:54.660Z,26.00
2018-09-11T09:17:23.142Z,26.80
2018-09-11T09:19:51.627Z,26.70
2018-09-11T09:22:20.318Z,26.40
2018-09-11T09:24:48.763Z,26.40
2018-09-11T09:27:17.388Z,26.30
2018-09-11T09:29:45.715Z,26.50
2018-09-11T09:32:14.188Z,27.10
2018-09-11T09:34:42.571Z,28.40
2018-09-11T09:37:11.442Z,29.60
2018-09-11T09:39:39.996Z,30.20
2018-09-11T09:42:08.550Z,30.80
2018-09-11T09:44:37.468Z,29.50
2018-09-11T09:47:06.009Z,28.90
2018-09-11T09:49:34.589Z,28.40
2018-09-11T09:52:04.159Z,27.80
2018-09-11T09:54:32.704Z,27.70
2018-09-11T09:57:01.251Z,27.50
2018-09-11T09:59:29.902Z,28.70
2018-09-11T10:02:03.075Z,28.90
2018-09-11T10:04:32.255Z,28.20
2018-09-11T10:07:03.068Z,28.50
2018-09-11T10:09:31.711Z,29.30
2018-09-11T10:12:00.285Z,28.60
2018-09-11T10:14:28.738Z,28.80
2018-09-11T10:16:57.463Z,30.60
2018-09-11T10:19:25.930Z,29.80
2018-09-11T10:21:54.351Z,29.00
2018-09-11T10:24:22.854Z,29.70
2018-09-11T10:26:51.318Z,30.60
2018-09-11T10:29:19.776Z,32.10
2018-09-11T10:31:48.245Z,32.60
2018-09-11T10:34:16.751Z,31.20
2018-09-11T10:36:45.271Z,31.10
2018-09-11T10:39:13.877Z,31.50
2018-09-11T10:41:42.559Z,33.20
2018-09-11T10:44:13.707Z,32.60
2018-09-11T10:46:42.315Z,32.10
2018-09-11T10:49:10.798Z,32.30
2018-09-11T10:51:39.720Z,30.00
2018-09-11T10:54:08.505Z,30.50
2018-09-11T10:56:37.292Z,30.60
2018-09-11T10:59:05.962Z,29.50
2018-09-11T11:01:34.474Z,30.10
2018-09-11T11:04:03.279Z,29.40
2018-09-11T11:06:31.956Z,29.20
2018-09-11T11:09:00.452Z,30.10
2018-09-11T11:11:28.977Z,30.50
2018-09-11T11:13:58.789Z,31.20
2018-09-11T11:16:27.411Z,30.60
2018-09-11T11:18:55.903Z,30.00
2018-09-11T11:21:24.378Z,30.20
2018-09-11T11:23:52.841Z,29.80
2018-09-11T11:26:21.457Z,30.60
2018-09-11T11:28:50.261Z,31.10
2018-09-11T11:31:19.928Z,31.70
2018-09-11T11:33:48.844Z,31.10
2018-09-11T11:36:17.439Z,32.00
2018-09-11T11:38:46.677Z,32.00
2018-09-11T11:41:15.247Z,32.50
2018-09-11T11:43:43.975Z,33.30
2018-09-11T11:46:12.475Z,32.80
2018-09-11T11:48:40.981Z,34.10
2018-09-11T11:51:09.510Z,33.50
2018-09-11T11:53:37.998Z,32.70
2018-09-11T11:56:06.971Z,33.60
2018-09-11T11:58:35.569Z,33.60
2018-09-11T12:01:04.097Z,33.60
2018-09-11T12:03:36.987Z,33.30
2018-09-11T12:06:05.508Z,32.80
2018-09-11T12:08:33.947Z,32.40
2018-09-11T12:11:02.531Z,32.90
2018-09-11T12:13:31.224Z,32.60
2018-09-11T12:15:59.865Z,33.60
2018-09-11T12:18:29.077Z,32.50
2018-09-11T12:20:57.585Z,33.10
2018-09-11T12:23:26.299Z,34.30
2018-09-11T12:25:54.898Z,35.40
2018-09-11T12:28:24.301Z,35.20
2018-09-11T12:30:53.577Z,34.00
2018-09-11T12:33:23.408Z,34.20
2018-09-11T12:35:51.977Z,35.20
2018-09-11T12:38:20.514Z,35.70
2018-09-11T12:40:50.327Z,34.60
2018-09-11T12:43:18.973Z,33.50
2018-09-11T12:45:47.469Z,33.80
2018-09-11T12:48:17.096Z,33.10
2018-09-11T12:50:45.416Z,33.20
2018-09-11T12:53:13.845Z,33.80
2018-09-11T12:55:43.526Z,33.30
2018-09-11T12:58:12.261Z,34.40
2018-09-11T13:00:40.847Z,35.10
2018-09-11T13:03:09.952Z,35.40
2018-09-11T13:05:38.410Z,36.10
2018-09-11T13:08:06.880Z,34.10
2018-09-11T13:10:35.418Z,34.20
2018-09-11T13:13:04.031Z,34.00
2018-09-11T13:15:32.731Z,34.70
2018-09-11T13:18:01.207Z,33.50
2018-09-11T13:20:29.938Z,33.00
2018-09-11T13:22:58.812Z,32.30
2018-09-11T13:25:27.406Z,32.30
2018-09-11T13:27:56.379Z,31.70
2018-09-11T13:30:24.829Z,32.30
2018-09-11T13:32:53.274Z,32.80
2018-09-11T13:35:21.989Z,33.00
2018-09-11T13:37:50.448Z,33.00
2018-09-11T13:40:19.052Z,33.60
2018-09-11T13:42:47.461Z,33.60
2018-09-11T13:45:15.963Z,33.30
2018-09-11T13:47:44.555Z,33.50
2018-09-11T13:50:13.057Z,34.50
2018-09-11T13:52:42.101Z,34.40
2018-09-11T13:55:10.770Z,33.60
2018-09-11T13:57:39.254Z,33.90
2018-09-11T14:00:07.815Z,33.70
2018-09-11T14:02:36.344Z,34.00
2018-09-11T14:05:05.149Z,34.60
2018-09-11T14:07:33.883Z,35.10
2018-09-11T14:10:02.507Z,35.80
2018-09-11T14:12:31.439Z,34.60
2018-09-11T14:14:59.825Z,34.30
2018-09-11T14:17:28.402Z,33.50
2018-09-11T14:19:56.884Z,33.20
2018-09-11T14:22:25.581Z,32.90
2018-09-11T14:24:54.063Z,32.60
2018-09-11T14:27:22.614Z,32.70
2018-09-11T14:29:51.100Z,33.20
2018-09-11T14:32:19.656Z,34.20
2018-09-11T14:34:48.382Z,34.50
2018-09-11T14:37:16.905Z,34.20
2018-09-11T14:39:45.602Z,33.90
2018-09-11T14:42:14.136Z,33.50
2018-09-11T14:44:42.696Z,33.30
2018-09-11T14:47:11.348Z,32.40
2018-09-11T14:49:39.884Z,32.90
2018-09-11T14:52:08.402Z,33.00
2018-09-11T14:54:36.986Z,33.10
2018-09-11T14:57:05.628Z,33.10
2018-09-11T14:59:34.183Z,32.80
2018-09-11T15:02:02.647Z,34.10
2018-09-11T15:04:31.051Z,32.60
2018-09-11T15:06:59.484Z,32.40
2018-09-11T15:09:27.891Z,31.00
2018-09-11T15:11:56.316Z,31.20
2018-09-11T15:14:24.799Z,30.90
2018-09-11T15:16:53.256Z,31.30
2018-09-11T15:19:21.814Z,31.20
2018-09-11T15:21:50.313Z,30.60
2018-09-11T15:24:19.238Z,30.10
2018-09-11T15:26:47.885Z,29.70
2018-09-11T15:29:16.357Z,29.20
2018-09-11T15:31:44.914Z,28.50
2018-09-11T15:34:13.462Z,28.10
2018-09-11T15:36:41.995Z,27.70
2018-09-11T15:39:10.507Z,27.60
2018-09-11T15:41:39.093Z,27.30
2018-09-11T15:44:07.695Z,27.40
2018-09-11T15:46:36.135Z,27.40
2018-09-11T15:49:04.818Z,27.30
2018-09-11T15:51:33.341Z,27.10
2018-09-11T15:54:01.891Z,27.00
2018-09-11T15:56:30.427Z,26.90
2018-09-11T15:58:58.931Z,26.90
2018-09-11T16:01:27.496Z,26.90
2018-09-11T16:03:56.132Z,27.00
2018-09-11T16:06:24.639Z,27.00
2018-09-11T16:08:53.136Z,26.90
2018-09-11T16:11:21.554Z,26.90
2018-09-11T16:13:50.047Z,26.70
2018-09-11T16:16:18.608Z,26.70
2018-09-11T16:18:47.230Z,27.00
2018-09-11T16:21:15.680Z,27.00
2018-09-11T16:23:44.212Z,27.00
2018-09-11T16:26:12.721Z,27.00
2018-09-11T16:28:41.203Z,26.80
2018-09-11T16:31:09.649Z,26.70
2018-09-11T16:33:38.227Z,26.50
2018-09-11T16:36:06.701Z,26.30
2018-09-11T16:38:35.142Z,26.00
2018-09-11T16:41:03.723Z,25.90
2018-09-11T16:43:32.210Z,25.80
2018-09-11T16:46:00.617Z,25.70
2018-09-11T16:48:29.131Z,25.60
2018-09-11T16:50:57.591Z,25.50
2018-09-11T16:53:26.131Z,25.50
2018-09-11T16:55:54.640Z,25.30
2018-09-11T16:58:23.135Z,25.10
2018-09-11T17:00:52.592Z,24.90
2018-09-11T17:03:21.204Z,24.80
2018-09-11T17:05:49.997Z,24.60
2018-09-11T17:08:18.593Z,24.40
2018-09-11T17:10:47.170Z,24.20
2018-09-11T17:13:15.802Z,23.80
2018-09-11T17:15:44.278Z,23.60
2018-09-11T17:18:12.800Z,23.30
2018-09-11T17:23:19.660Z,23.00
2018-09-11T17:25:48.291Z,22.80
2018-09-11T17:28:16.672Z,22.60
2018-09-11T17:30:44.894Z,22.40
2018-09-11T17:33:13.265Z,22.20
2018-09-11T17:35:41.554Z,22.00
2018-09-11T17:38:32.795Z,21.80
2018-09-11T17:41:01.023Z,21.60
2018-09-11T17:43:29.242Z,21.40
2018-09-11T17:45:57.483Z,21.30
2018-09-11T17:48:25.706Z,21.20
2018-09-11T17:51:10.950Z,21.20
2018-09-11T17:53:39.197Z,21.10
2018-09-11T17:56:07.455Z,20.90
2018-09-11T17:58:35.686Z,20.70
2018-09-11T18:01:04.271Z,20.80
2018-09-11T18:03:32.654Z,20.90
2018-09-11T18:06:10.854Z,20.80
2018-09-11T18:08:39.145Z,20.60
2018-09-11T18:11:07.320Z,20.60
2018-09-11T18:13:35.551Z,20.50
2018-09-11T18:16:03.843Z,20.60
2018-09-11T18:18:32.054Z,20.50
2018-09-11T18:21:00.599Z,20.30
2018-09-11T18:23:28.832Z,20.30
2018-09-11T18:25:57.191Z,20.30
2018-09-11T18:28:25.827Z,20.20
2018-09-11T18:30:54.090Z,20.00
2018-09-11T18:33:22.487Z,19.80
2018-09-11T18:35:50.698Z,19.70
2018-09-11T18:38:18.916Z,19.50
2018-09-11T18:40:47.133Z,19.30
2018-09-11T18:43:15.382Z,19.30
2018-09-11T18:45:57.803Z,19.20
2018-09-11T18:48:27.007Z,19.10
2018-09-11T18:50:55.227Z,19.20
2018-09-11T18:53:23.482Z,19.10
2018-09-11T18:55:51.747Z,19.10
2018-09-11T18:58:19.960Z,19.10
2018-09-11T19:00:48.551Z,19.00
2018-09-11T19:03:16.843Z,19.00
2018-09-11T19:05:45.070Z,18.80
2018-09-11T19:08:13.546Z,18.80
2018-09-11T19:10:42.486Z,18.70
2018-09-11T19:13:10.774Z,18.60
2018-09-11T19:15:39.282Z,18.50
2018-09-11T19:18:07.579Z,18.40
2018-09-11T19:20:36.323Z,18.30
2018-09-11T19:23:04.599Z,18.20
2018-09-11T19:25:38.153Z,18.10
2018-09-11T19:28:06.359Z,18.00
2018-09-11T19:30:34.580Z,18.00
2018-09-11T19:33:08.986Z,17.70
2018-09-11T19:35:37.242Z,17.60
2018-09-11T19:38:13.787Z,17.50
2018-09-11T19:40:42.169Z,17.40
2018-09-11T19:43:10.551Z,17.20
2018-09-11T19:45:38.801Z,17.20
2018-09-11T19:48:07.047Z,17.30
2018-09-11T19:50:35.316Z,17.40
2018-09-11T19:53:04.547Z,17.40
2018-09-11T19:55:32.887Z,17.40
2018-09-11T19:58:01.196Z,17.40
2018-09-11T20:00:29.575Z,17.30
2018-09-11T20:03:05.677Z,17.10
2018-09-11T20:05:33.915Z,16.90
2018-09-11T20:08:02.196Z,16.80
2018-09-11T20:10:31.113Z,16.70
2018-09-11T20:13:01.737Z,16.60
2018-09-11T20:15:30.003Z,16.60
2018-09-11T20:17:58.771Z,16.50
2018-09-11T20:20:27.383Z,16.40
2018-09-11T20:22:55.915Z,16.40
2018-09-11T20:25:24.468Z,16.40
2018-09-11T20:27:53.782Z,16.40
2018-09-11T20:30:22.083Z,16.30
2018-09-11T20:32:57.142Z,16.30
2018-09-11T20:35:25.357Z,16.30
2018-09-11T20:38:06.926Z,16.20
2018-09-11T20:40:35.168Z,16.10
2018-09-11T20:43:03.556Z,16.10
2018-09-11T20:45:31.793Z,16.00
2018-09-11T20:48:00.312Z,15.80
2018-09-11T20:50:28.515Z,15.60
2018-09-11T20:52:56.780Z,15.60
2018-09-11T20:55:25.064Z,15.40
2018-09-11T20:57:53.283Z,15.40
2018-09-11T21:00:21.490Z,15.40
2018-09-11T21:02:50.571Z,15.20
2018-09-11T21:05:18.831Z,15.20
2018-09-11T21:07:47.081Z,15.20
2018-09-11T21:10:15.296Z,15.20
2018-09-11T21:12:43.535Z,15.00
2018-09-11T21:15:12.018Z,15.00
2018-09-11T21:17:40.211Z,14.90
2018-09-11T21:20:08.444Z,14.90
2018-09-11T21:22:36.655Z,14.90
2018-09-11T21:25:04.890Z,14.90
2018-09-11T21:27:33.230Z,14.90
2018-09-11T21:30:01.594Z,14.80
2018-09-11T21:32:30.012Z,14.90
2018-09-11T21:34:58.382Z,14.90
2018-09-11T21:37:26.586Z,14.80
2018-09-11T21:39:54.799Z,14.80
2018-09-11T21:42:23.006Z,14.80
2018-09-11T21:44:51.220Z,14.80
2018-09-11T21:47:19.447Z,14.80
2018-09-11T21:49:47.841Z,14.80
2018-09-11T21:52:16.036Z,14.70
2018-09-11T21:54:44.246Z,14.60
2018-09-11T21:57:12.455Z,14.60
2018-09-11T21:59:40.663Z,14.60
2018-09-11T22:02:08.865Z,14.60
2018-09-11T22:04:37.079Z,14.50
2018-09-11T22:07:05.455Z,14.60
2018-09-11T22:09:33.675Z,14.50
2018-09-11T22:12:01.937Z,14.50
2018-09-11T22:14:30.108Z,14.50
2018-09-11T22:16:58.314Z,14.50
2018-09-11T22:19:26.595Z,14.50
2018-09-11T22:21:54.803Z,14.50
2018-09-11T22:24:23.015Z,14.40
2018-09-11T22:26:51.218Z,14.40
2018-09-11T22:29:19.439Z,14.40
2018-09-11T22:31:47.645Z,14.40
2018-09-11T22:34:15.862Z,14.50
2018-09-11T22:36:44.071Z,14.50
2018-09-11T22:39:12.282Z,14.50
2018-09-11T22:41:40.501Z,14.50
2018-09-11T22:44:08.686Z,14.50
2018-09-11T22:46:36.898Z,14.50
2018-09-11T22:49:05.165Z,14.50
2018-09-11T22:51:33.391Z,14.50
2018-09-11T22:54:01.608Z,14.50
2018-09-11T22:56:29.807Z,14.50
2018-09-11T22:58:58.018Z,14.50
2018-09-11T23:01:26.235Z,14.60
2018-09-11T23:03:54.444Z,14.40
2018-09-11T23:06:23.032Z,14.40
2018-09-11T23:08:51.230Z,14.30
2018-09-11T23:11:19.435Z,14.20
2018-09-11T23:13:47.639Z,14.10
2018-09-11T23:16:15.850Z,14.00
2018-09-11T23:18:44.059Z,13.90
2018-09-11T23:21:12.291Z,14.00
2018-09-11T23:23:40.499Z,13.90
2018-09-11T23:26:08.710Z,13.90
2018-09-11T23:28:36.909Z,14.00
2018-09-11T23:31:05.123Z,14.10
2018-09-11T23:33:33.332Z,14.10
2018-09-11T23:36:01.538Z,14.10
2018-09-11T23:38:29.742Z,14.00
2018-09-11T23:40:57.974Z,14.00
2018-09-11T23:43:26.175Z,14.00
2018-09-11T23:45:54.382Z,13.90
2018-09-11T23:48:22.586Z,13.80
2018-09-11T23:50:50.794Z,13.80
2018-09-11T23:53:19.044Z,13.80
2018-09-11T23:55:47.263Z,13.80
2018-09-11T23:58:15.491Z,13.80
